Stacja Pogody Warszawa Praga Północ 


Stacja Pogody
Warszawa Praga Północ

 Szerokość N 52° 15 '43"    Długość E 21° 01' 22"    Wysokość 89 m n.p.m.


Wschód Słońca 07:10 Górowanie Słońca 12:20 Zachód Słońca 17:30 waga
Data juliańska 2456952.147 Odległość Słońca 148851942 km Średn. kątowa Słońca 0,321°
Wschód Księżyca 04:20 Zachód Księżyca 16:27 Wiek Księżyca 27 dni Moon
Widoczność Księżyca 5,66% Odległość Księżyca 400946 km Średn. kątowa Księżyca 0,298°
Dzień krótszy od najdłuższego o: 06:28 Długość dnia 10:19 Imieniny Urszuli, Hilarego, Jakuba




Warunki pogodowe uaktualnione 21-10-2014, o godzinie 15:23
Temperatura 12.7 °C ↓ Temperatura odczuwalna 10.1 °C
Punkt rosy 9.7 °C Humidex 13.8 °C
Deszcz na godzinę 0.0 mm Wilgotność względna 82% ↑
Prędkość wiatru (średnia) 4 km/h → Prędkość wiatru (podmuch) 13 km/h
Kierunek wiatru N Skala Beaufort'a 3
Ciśnienie względne  1007 hPa Trend ciśnienia powolny spadek
Ciśnienie bezwzględne  994 hPa Podstawa chmur 455.4 m
METAR EPWA 211300Z 27007KT 9999 FEW018 13/09 Q1007 NOSIG
TAF TAF EPWA 211130Z 2112/2212 26010KT 9999 BKN020





 a

Valid XHTML 1.0 Transitional Valid CSS!